Time;durP1;ratioP1;P1;durP2;ratioP2;P2;SDS_P1;SDS_P2;PMS_P1;PMS_P2;Temp;Humidity;BMP_temperature;BMP_pressure;BME280_temperature;BME280_humidity;BME280_pressure;Samples;Min_cycle;Max_cycle;Signal;HPM_P1;HPM_P2
2021/06/14 00:01:56;;;;;;;15.25;7.97;;;12.70;99.90;;;;;;5093961;28;20110;-66
2021/06/14 00:04:21;;;;;;;15.43;6.85;;;12.70;99.90;;;;;;5094259;28;20028;-66
2021/06/14 00:06:47;;;;;;;11.32;7.10;;;12.60;99.90;;;;;;5094262;28;20066;-66
2021/06/14 00:09:17;;;;;;;10.73;6.55;;;12.60;99.90;;;;;;5094197;28;20020;-66
2021/06/14 00:11:42;;;;;;;15.20;7.10;;;12.50;99.90;;;;;;5094587;28;20111;-66
2021/06/14 00:14:08;;;;;;;14.95;6.95;;;12.50;99.90;;;;;;5094993;28;20058;-66
2021/06/14 00:16:35;;;;;;;13.15;6.78;;;12.50;99.90;;;;;;5095546;28;20028;-66
2021/06/14 00:19:03;;;;;;;11.43;6.88;;;12.50;99.90;;;;;;5094929;28;20016;-66
2021/06/14 00:21:29;;;;;;;10.10;6.28;;;12.50;99.90;;;;;;5094299;28;20032;-66
2021/06/14 00:23:54;;;;;;;12.93;6.68;;;12.40;99.90;;;;;;5093507;28;20031;-66
2021/06/14 00:26:20;;;;;;;13.48;7.43;;;12.30;99.90;;;;;;5095074;28;20020;-66
2021/06/14 00:28:45;;;;;;;12.50;6.65;;;12.30;99.90;;;;;;5076657;28;20362;-66
2021/06/14 00:31:11;;;;;;;13.00;7.50;;;12.30;99.90;;;;;;5095240;28;20031;-66
2021/06/14 00:33:38;;;;;;;15.40;6.85;;;12.30;99.90;;;;;;5094045;28;20376;-67
2021/06/14 00:36:05;;;;;;;15.02;7.18;;;12.30;99.90;;;;;;5095146;28;20020;-66
2021/06/14 00:38:30;;;;;;;11.07;6.85;;;12.20;99.90;;;;;;5093842;28;20048;-66
2021/06/14 00:40:56;;;;;;;14.18;7.80;;;12.20;99.90;;;;;;5095075;28;20082;-66
2021/06/14 00:43:22;;;;;;;17.23;7.53;;;12.10;99.90;;;;;;5093194;28;20052;-66
2021/06/14 00:45:50;;;;;;;13.52;7.38;;;12.10;99.90;;;;;;5093562;28;20016;-65
2021/06/14 00:48:16;;;;;;;18.75;7.93;;;12.10;99.90;;;;;;5093777;28;20020;-66
2021/06/14 00:50:45;;;;;;;11.40;7.38;;;12.10;99.90;;;;;;5094342;28;20032;-66
2021/06/14 00:53:16;;;;;;;13.68;7.93;;;12.10;99.90;;;;;;5094351;28;20032;-66
2021/06/14 00:55:43;;;;;;;14.18;7.18;;;12.00;99.90;;;;;;5094845;28;20435;-66
2021/06/14 00:58:09;;;;;;;17.30;8.25;;;12.00;99.90;;;;;;5092979;28;20027;-66
2021/06/14 01:00:34;;;;;;;16.85;8.25;;;12.00;99.90;;;;;;5094716;28;20354;-66
2021/06/14 01:03:00;;;;;;;15.10;7.55;;;12.00;99.90;;;;;;5094637;28;20458;-66
2021/06/14 01:05:29;;;;;;;13.65;7.10;;;12.00;99.90;;;;;;5094643;28;20099;-66
2021/06/14 01:07:55;;;;;;;11.52;7.80;;;12.00;99.90;;;;;;5094592;28;20016;-66
2021/06/14 01:10:21;;;;;;;15.98;7.97;;;11.90;99.90;;;;;;5075798;28;20469;-67
2021/06/14 01:13:13;;;;;;;14.07;7.88;;;11.90;99.90;;;;;;5093041;28;20153;-66
2021/06/14 01:15:50;;;;;;;13.48;7.97;;;11.90;99.90;;;;;;5092882;28;20020;-67
2021/06/14 01:18:21;;;;;;;13.27;7.60;;;11.80;99.90;;;;;;5094412;28;20149;-66
2021/06/14 01:21:02;;;;;;;12.85;7.80;;;11.80;99.90;;;;;;5093857;28;20062;-66
2021/06/14 01:24:07;;;;;;;16.40;8.10;;;11.80;99.90;;;;;;5094289;28;20111;-66
2021/06/14 01:26:43;;;;;;;17.00;8.48;;;11.80;99.90;;;;;;5093633;28;20020;-66
2021/06/14 01:29:09;;;;;;;13.57;7.97;;;11.90;99.90;;;;;;5094297;28;20027;-66
2021/06/14 01:31:37;;;;;;;12.80;7.18;;;11.90;99.90;;;;;;5092561;28;20039;-66
2021/06/14 01:34:04;;;;;;;13.38;8.35;;;11.90;99.90;;;;;;5094226;28;20488;-66
2021/06/14 01:36:33;;;;;;;12.98;7.68;;;11.80;99.90;;;;;;5094241;28;20406;-66
2021/06/14 01:38:59;;;;;;;10.23;7.40;;;11.80;99.90;;;;;;5094196;28;20035;-66
2021/06/14 01:41:27;;;;;;;11.77;7.60;;;11.70;99.90;;;;;;5092334;28;20031;-66
2021/06/14 01:43:54;;;;;;;12.90;8.00;;;11.70;99.90;;;;;;5093464;28;20051;-66
2021/06/14 01:46:23;;;;;;;16.27;8.20;;;11.60;99.90;;;;;;5092434;28;20027;-66
2021/06/14 01:48:49;;;;;;;15.35;8.05;;;11.50;99.90;;;;;;5092941;28;20012;-66
2021/06/14 01:51:19;;;;;;;14.13;8.00;;;11.40;99.90;;;;;;5094077;28;20074;-66
2021/06/14 01:54:02;;;;;;;14.57;9.02;;;11.40;99.90;;;;;;5093093;28;20074;-66
2021/06/14 01:56:30;;;;;;;15.93;7.88;;;11.40;99.90;;;;;;5094066;28;20028;-66
2021/06/14 01:58:58;;;;;;;17.05;8.13;;;11.50;99.90;;;;;;5094000;28;20055;-66
2021/06/14 02:01:24;;;;;;;16.77;8.10;;;11.50;99.90;;;;;;5093662;28;20031;-66
2021/06/14 02:03:50;;;;;;;16.40;8.73;;;11.40;99.90;;;;;;5093705;28;20024;-66
2021/06/14 02:06:15;;;;;;;15.27;8.75;;;11.40;99.90;;;;;;5098023;28;20024;-66
2021/06/14 02:08:42;;;;;;;12.65;8.60;;;11.40;99.90;;;;;;5096538;28;20035;-66
2021/06/14 02:11:07;;;;;;;14.60;8.23;;;11.40;99.90;;;;;;5097965;28;20024;-66
2021/06/14 02:13:35;;;;;;;19.80;8.82;;;11.30;99.90;;;;;;5096470;28;20476;-66
2021/06/14 02:16:00;;;;;;;20.10;8.77;;;11.30;99.90;;;;;;5096020;28;20388;-66
2021/06/14 02:18:26;;;;;;;16.88;8.32;;;11.30;99.90;;;;;;5079664;28;20028;-66
2021/06/14 02:20:52;;;;;;;25.10;9.02;;;11.30;99.90;;;;;;5097765;28;20400;-66
2021/06/14 02:23:18;;;;;;;19.40;8.60;;;11.30;99.90;;;;;;5096232;28;20044;-66
2021/06/14 02:25:43;;;;;;;18.52;9.10;;;11.30;99.90;;;;;;5097678;28;20558;-66
2021/06/14 02:28:09;;;;;;;17.65;8.93;;;11.30;99.90;;;;;;5097651;28;20021;-66
2021/06/14 02:30:34;;;;;;;16.38;8.65;;;11.20;99.90;;;;;;5096991;28;20141;-66
2021/06/14 02:33:00;;;;;;;15.68;9.05;;;11.20;99.90;;;;;;5097234;28;20035;-66
2021/06/14 02:35:26;;;;;;;17.10;8.75;;;11.30;99.90;;;;;;5095694;28;20063;-66
2021/06/14 02:37:59;;;;;;;16.27;9.15;;;11.20;99.90;;;;;;5095725;28;20024;-66
2021/06/14 02:40:28;;;;;;;16.92;9.20;;;11.20;99.90;;;;;;5097382;28;20028;-66
2021/06/14 02:42:56;;;;;;;19.40;9.45;;;11.20;99.90;;;;;;5096674;28;20511;-66
2021/06/14 02:45:24;;;;;;;18.35;8.98;;;11.20;99.90;;;;;;5097295;28;20050;-66
2021/06/14 02:47:51;;;;;;;18.38;9.63;;;11.20;99.90;;;;;;5078519;28;20044;-66
2021/06/14 02:50:20;;;;;;;16.88;9.27;;;11.20;99.90;;;;;;5078646;28;20059;-66
2021/06/14 02:52:50;;;;;;;17.25;9.05;;;11.20;99.90;;;;;;5095362;28;20104;-66
2021/06/14 02:55:19;;;;;;;18.95;9.15;;;11.20;99.90;;;;;;5078682;28;20024;-66
2021/06/14 02:57:51;;;;;;;21.63;10.50;;;11.20;99.90;;;;;;5095647;28;20377;-66
2021/06/14 03:00:18;;;;;;;15.68;9.32;;;11.10;99.90;;;;;;5097009;28;20024;-66
2021/06/14 03:02:43;;;;;;;25.17;10.90;;;11.10;99.90;;;;;;5096874;28;20381;-66
2021/06/14 03:05:10;;;;;;;22.00;10.68;;;11.20;99.90;;;;;;5095771;28;20027;-66
2021/06/14 03:07:37;;;;;;;18.27;10.60;;;11.20;99.90;;;;;;5096276;28;20205;-66
2021/06/14 03:10:05;;;;;;;19.15;10.50;;;11.20;99.90;;;;;;5095666;28;20107;-66
2021/06/14 03:12:31;;;;;;;22.40;10.15;;;11.30;99.90;;;;;;5095015;28;20531;-66
2021/06/14 03:14:57;;;;;;;20.17;9.23;;;11.30;99.90;;;;;;5094810;28;20052;-66
2021/06/14 03:17:23;;;;;;;16.73;9.88;;;11.20;99.90;;;;;;5096068;28;20354;-66
2021/06/14 03:19:50;;;;;;;21.63;10.05;;;11.20;99.90;;;;;;5095070;28;20495;-66
2021/06/14 03:22:16;;;;;;;19.92;11.27;;;11.20;99.90;;;;;;5096526;28;20032;-66
2021/06/14 03:24:42;;;;;;;20.90;11.38;;;11.30;99.90;;;;;;5096548;28;20377;-66
2021/06/14 03:27:10;;;;;;;18.65;11.10;;;11.30;99.90;;;;;;5096231;28;20396;-66
2021/06/14 03:29:38;;;;;;;17.08;10.80;;;11.30;99.90;;;;;;5096390;28;20024;-66
2021/06/14 03:32:04;;;;;;;22.30;12.75;;;11.40;99.90;;;;;;5096325;28;20016;-66
2021/06/14 03:34:31;;;;;;;19.13;11.32;;;11.40;99.90;;;;;;5077807;28;20122;-66
2021/06/14 03:36:58;;;;;;;22.77;12.02;;;11.40;99.90;;;;;;5094484;28;20031;-66
2021/06/14 03:39:24;;;;;;;20.55;12.07;;;11.30;99.90;;;;;;5096251;28;20065;-66
2021/06/14 03:41:51;;;;;;;27.63;11.50;;;11.40;99.90;;;;;;5094428;28;20028;-66
2021/06/14 03:44:18;;;;;;;21.02;10.98;;;11.40;99.90;;;;;;5094260;28;20079;-66
2021/06/14 03:46:44;;;;;;;21.45;12.13;;;11.30;99.90;;;;;;5096090;28;20016;-66
2021/06/14 03:49:10;;;;;;;19.48;11.00;;;11.20;99.90;;;;;;5095785;28;20024;-66
2021/06/14 03:51:36;;;;;;;21.92;12.57;;;11.20;99.90;;;;;;5077387;28;20024;-66
2021/06/14 03:54:02;;;;;;;23.30;12.50;;;11.30;99.90;;;;;;5095737;28;20036;-66
2021/06/14 03:56:31;;;;;;;20.23;10.07;;;11.40;99.90;;;;;;5095933;28;20020;-66
2021/06/14 03:58:57;;;;;;;15.80;10.70;;;11.50;99.90;;;;;;5095339;28;20024;-66
2021/06/14 04:01:23;;;;;;;18.50;11.50;;;11.60;99.90;;;;;;5095856;28;20031;-66
2021/06/14 04:06:26;;;;;;;16.98;11.05;;;11.80;99.90;;;;;;5095427;28;20453;-66
2021/06/14 04:08:52;;;;;;;20.83;11.15;;;11.90;99.90;;;;;;5095440;28;20107;-66
2021/06/14 04:11:18;;;;;;;21.67;11.13;;;12.10;99.90;;;;;;5095079;28;20354;-66
2021/06/14 04:13:44;;;;;;;19.27;10.50;;;12.20;99.90;;;;;;5094135;28;20027;-66
2021/06/14 04:16:10;;;;;;;14.85;9.20;;;12.40;99.90;;;;;;5094103;28;20039;-66
2021/06/14 04:18:35;;;;;;;21.20;9.45;;;12.60;99.90;;;;;;5095534;28;20024;-66
2021/06/14 04:21:01;;;;;;;15.65;9.55;;;12.80;99.90;;;;;;5077386;28;20055;-66
2021/06/14 04:23:26;;;;;;;16.38;8.88;;;12.90;99.90;;;;;;5095356;28;20063;-66
2021/06/14 04:25:52;;;;;;;21.45;9.48;;;12.90;99.90;;;;;;5095391;28;20485;-66
2021/06/14 04:28:17;;;;;;;14.80;8.55;;;12.90;99.90;;;;;;5094515;28;20365;-66
2021/06/14 04:30:43;;;;;;;16.15;9.23;;;13.10;99.90;;;;;;5093845;28;20511;-66
2021/06/14 04:33:08;;;;;;;15.20;8.07;;;13.60;99.90;;;;;;5095234;28;20032;-66
2021/06/14 04:35:34;;;;;;;14.43;8.05;;;14.10;99.90;;;;;;5095193;28;20485;-66
2021/06/14 04:37:59;;;;;;;12.85;8.50;;;14.60;99.90;;;;;;5076427;28;20028;-67
2021/06/14 04:40:25;;;;;;;9.43;6.57;;;15.30;99.90;;;;;;5095085;28;20419;-67
2021/06/14 04:42:51;;;;;;;13.73;6.22;;;16.80;99.90;;;;;;5094425;28;20500;-67
2021/06/14 04:45:18;;;;;;;12.20;6.20;;;18.30;99.90;;;;;;5094990;28;20052;-65
2021/06/14 04:47:45;;;;;;;10.02;6.10;;;19.50;99.90;;;;;;5093780;28;20364;-67
2021/06/14 04:50:12;;;;;;;12.38;5.82;;;20.20;99.90;;;;;;5094898;28;20024;-67
2021/06/14 04:52:37;;;;;;;11.63;6.30;;;20.80;99.90;;;;;;5077076;28;20079;-67
2021/06/14 04:55:03;;;;;;;8.98;5.95;;;21.20;99.90;;;;;;5094805;28;20384;-67
2021/06/14 04:57:29;;;;;;;10.48;5.82;;;21.40;99.90;;;;;;5093380;28;20046;-67
2021/06/14 04:59:54;;;;;;;10.07;5.35;;;21.70;99.90;;;;;;5092902;28;20418;-67
2021/06/14 05:02:20;;;;;;;13.43;6.25;;;21.40;99.90;;;;;;5094649;28;20377;-67
2021/06/14 05:04:45;;;;;;;9.10;5.50;;;21.80;99.90;;;;;;5094321;28;20031;-68
2021/06/14 05:07:11;;;;;;;9.00;5.82;;;21.80;99.90;;;;;;5076181;28;20027;-67
2021/06/14 05:09:36;;;;;;;10.60;5.80;;;22.40;99.90;;;;;;5094306;28;20028;-67
2021/06/14 05:12:02;;;;;;;9.65;5.70;;;22.40;99.90;;;;;;5094543;28;20474;-67
2021/06/14 05:14:28;;;;;;;9.88;5.60;;;22.90;99.90;;;;;;5076199;28;20031;-67
2021/06/14 05:16:53;;;;;;;9.68;5.85;;;22.80;99.90;;;;;;5092796;28;20028;-67
2021/06/14 05:19:19;;;;;;;9.02;5.18;;;23.10;99.90;;;;;;5092714;28;20466;-67
2021/06/14 05:21:44;;;;;;;11.20;5.72;;;23.60;98.90;;;;;;5094465;28;20024;-67
2021/06/14 05:24:10;;;;;;;8.43;4.93;;;23.70;98.80;;;;;;5093109;28;20035;-67
2021/06/14 05:26:36;;;;;;;8.57;5.00;;;23.40;98.40;;;;;;5094163;28;20048;-67
2021/06/14 05:29:02;;;;;;;9.38;5.07;;;23.50;98.60;;;;;;5092965;28;20085;-67
2021/06/14 05:31:28;;;;;;;10.43;5.35;;;23.70;97.70;;;;;;5075710;28;20020;-67
2021/06/14 05:33:53;;;;;;;10.95;6.00;;;23.60;97.40;;;;;;5093927;28;20362;-69
2021/06/14 05:36:19;;;;;;;11.43;5.82;;;23.70;98.00;;;;;;5094236;28;20024;-68
2021/06/14 05:38:44;;;;;;;12.10;5.05;;;23.80;97.50;;;;;;5093742;28;20035;-68
2021/06/14 05:41:10;;;;;;;8.90;5.40;;;24.10;98.20;;;;;;5094200;28;20028;-69
2021/06/14 05:43:35;;;;;;;10.63;5.28;;;24.80;96.30;;;;;;5093406;28;20152;-69
2021/06/14 05:46:01;;;;;;;11.45;5.57;;;24.80;95.50;;;;;;5093432;28;20023;-69
2021/06/14 05:48:27;;;;;;;11.43;5.70;;;25.30;95.10;;;;;;5093838;28;20031;-69
2021/06/14 05:50:52;;;;;;;8.50;4.97;;;24.50;95.20;;;;;;5094047;28;20372;-69
2021/06/14 05:53:21;;;;;;;9.73;5.18;;;24.30;96.40;;;;;;5093986;28;20433;-69
2021/06/14 05:55:46;;;;;;;9.98;5.63;;;25.10;93.40;;;;;;5093599;28;20028;-69
2021/06/14 05:58:12;;;;;;;11.07;5.90;;;24.90;94.10;;;;;;5075303;28;20086;-67
2021/06/14 06:00:37;;;;;;;9.85;5.90;;;24.40;95.60;;;;;;5092123;28;20115;-69
2021/06/14 06:03:03;;;;;;;7.20;4.90;;;25.50;94.50;;;;;;5091963;28;20034;-67
2021/06/14 06:05:29;;;;;;;11.13;5.28;;;25.60;93.10;;;;;;5092388;28;20104;-67
2021/06/14 06:07:54;;;;;;;11.80;4.85;;;25.50;93.90;;;;;;5092250;28;20024;-67
2021/06/14 06:10:20;;;;;;;7.68;4.50;;;25.00;94.40;;;;;;5090427;28;20024;-66
2021/06/14 06:12:45;;;;;;;12.73;4.93;;;26.10;91.10;;;;;;5092623;28;20032;-69
2021/06/14 06:15:17;;;;;;;8.20;4.70;;;26.10;89.90;;;;;;5093014;28;20028;-69
2021/06/14 06:17:43;;;;;;;7.72;4.65;;;26.10;89.60;;;;;;5091026;28;20461;-68
2021/06/14 06:20:11;;;;;;;12.38;4.65;;;26.20;89.70;;;;;;5092814;28;20047;-69
2021/06/14 06:22:38;;;;;;;14.20;4.63;;;26.20;88.90;;;;;;5092988;28;20401;-69
2021/06/14 06:25:06;;;;;;;9.10;4.63;;;25.90;89.20;;;;;;5093081;28;20016;-67
2021/06/14 06:27:32;;;;;;;11.55;4.65;;;25.80;88.30;;;;;;5090556;28;20028;-69
2021/06/14 06:29:57;;;;;;;10.52;5.30;;;26.10;87.20;;;;;;5092399;28;20103;-67
2021/06/14 06:32:23;;;;;;;8.75;4.40;;;26.50;85.80;;;;;;5091712;28;20115;-69
2021/06/14 06:34:48;;;;;;;10.73;4.53;;;26.20;85.50;;;;;;5091753;28;20030;-68
2021/06/14 06:37:14;;;;;;;7.55;4.22;;;25.70;85.80;;;;;;5074027;28;20050;-69
2021/06/14 06:39:39;;;;;;;11.90;4.65;;;26.60;85.30;;;;;;5091710;28;20074;-68
2021/06/14 06:42:05;;;;;;;9.23;4.72;;;26.20;86.40;;;;;;5092437;28;20024;-67
2021/06/14 06:44:31;;;;;;;10.45;4.30;;;26.40;86.70;;;;;;5093048;28;20028;-67
2021/06/14 06:46:57;;;;;;;31.98;5.80;;;26.30;85.50;;;;;;5091543;28;20485;-67
2021/06/14 06:49:22;;;;;;;51.83;7.57;;;27.30;81.70;;;;;;5091489;28;20035;-67
2021/06/14 06:51:48;;;;;;;7.93;4.63;;;27.40;81.40;;;;;;5076889;28;20019;-67
2021/06/14 06:54:14;;;;;;;21.80;5.15;;;27.30;79.90;;;;;;5095215;28;20024;-67
2021/06/14 06:56:42;;;;;;;11.35;4.47;;;26.90;81.10;;;;;;5094994;28;20024;-68
2021/06/14 06:59:10;;;;;;;9.10;4.20;;;27.40;79.80;;;;;;5096601;28;20035;-68
2021/06/14 07:01:35;;;;;;;11.32;4.30;;;28.10;76.40;;;;;;5074370;28;20032;-67
2021/06/14 07:04:01;;;;;;;10.25;4.32;;;27.80;76.20;;;;;;5075867;28;20029;-68
2021/06/14 07:06:27;;;;;;;9.55;4.25;;;27.60;76.90;;;;;;5074791;28;20020;-67
2021/06/14 07:08:56;;;;;;;7.50;4.00;;;27.60;75.30;;;;;;5071881;28;20020;-67
2021/06/14 07:11:21;;;;;;;9.73;4.50;;;27.30;75.00;;;;;;5074721;28;20029;-67
2021/06/14 07:13:47;;;;;;;12.70;4.20;;;27.10;76.90;;;;;;5075826;28;20031;-67
2021/06/14 07:16:12;;;;;;;15.32;4.50;;;27.50;75.00;;;;;;5074652;28;20024;-67
2021/06/14 07:18:38;;;;;;;10.60;4.47;;;28.20;74.60;;;;;;5084705;28;20057;-67
2021/06/14 07:21:04;;;;;;;8.93;4.43;;;28.30;72.20;;;;;;5096298;28;20027;-67
2021/06/14 07:23:29;;;;;;;10.05;4.50;;;28.00;74.20;;;;;;5096392;28;20052;-67
2021/06/14 07:25:55;;;;;;;8.50;4.22;;;28.20;73.80;;;;;;5095848;28;20016;-67
2021/06/14 07:28:20;;;;;;;7.85;3.90;;;28.50;71.30;;;;;;5095901;28;20431;-67
2021/06/14 07:30:46;;;;;;;8.13;3.78;;;28.90;71.20;;;;;;5078516;28;20457;-67
2021/06/14 07:33:11;;;;;;;7.57;4.30;;;28.80;70.00;;;;;;5095192;28;20063;-67
2021/06/14 07:35:37;;;;;;;8.85;4.32;;;28.00;70.80;;;;;;5096216;28;20415;-67
2021/06/14 07:38:04;;;;;;;15.02;4.88;;;28.30;72.40;;;;;;5095678;28;20381;-67
2021/06/14 07:40:30;;;;;;;10.25;4.57;;;29.10;71.00;;;;;;5096425;28;20028;-67
2021/06/14 07:42:56;;;;;;;8.48;3.88;;;29.40;67.10;;;;;;5077505;28;20040;-67
2021/06/14 07:45:24;;;;;;;9.90;4.07;;;29.30;69.20;;;;;;5094793;28;20728;-67
2021/06/14 07:47:50;;;;;;;11.73;4.05;;;28.90;67.10;;;;;;5095983;28;20027;-67
2021/06/14 07:50:16;;;;;;;8.13;4.25;;;28.30;69.50;;;;;;5074219;28;20115;-67
2021/06/14 07:52:42;;;;;;;9.98;4.05;;;28.50;68.30;;;;;;5076435;28;20024;-67
2021/06/14 07:55:10;;;;;;;8.80;3.85;;;29.60;65.50;;;;;;5093996;28;20470;-67
2021/06/14 07:57:35;;;;;;;9.90;3.80;;;29.20;66.70;;;;;;5095436;28;20107;-68
2021/06/14 08:00:02;;;;;;;8.40;4.10;;;29.40;67.90;;;;;;5095058;28;20044;-67
2021/06/14 08:02:28;;;;;;;8.05;3.92;;;28.50;67.10;;;;;;5094147;28;20020;-67
2021/06/14 08:04:53;;;;;;;6.03;3.55;;;29.10;68.90;;;;;;5095583;28;20038;-67
2021/06/14 08:07:19;;;;;;;7.50;3.85;;;29.40;67.00;;;;;;5095223;28;20058;-70
2021/06/14 08:09:47;;;;;;;7.18;4.35;;;29.20;67.00;;;;;;5076822;28;20024;-70
2021/06/14 08:12:12;;;;;;;8.02;4.35;;;28.70;66.90;;;;;;5095412;28;20024;-70
2021/06/14 08:14:38;;;;;;;6.80;3.75;;;28.70;66.30;;;;;;5095368;28;20446;-70
2021/06/14 08:17:04;;;;;;;10.05;4.10;;;29.00;66.90;;;;;;5094141;28;20471;-70
2021/06/14 08:19:41;;;;;;;8.20;3.78;;;28.90;66.20;;;;;;5094757;28;20020;-70
2021/06/14 08:22:22;;;;;;;8.18;3.80;;;29.60;66.70;;;;;;5094724;28;20183;-70
2021/06/14 08:25:04;;;;;;;6.90;4.20;;;29.80;64.60;;;;;;5078714;28;20389;-70
2021/06/14 08:27:32;;;;;;;6.95;3.72;;;29.30;64.20;;;;;;5094914;28;20093;-70
2021/06/14 08:29:58;;;;;;;6.88;3.88;;;29.90;63.50;;;;;;5095145;28;20024;-70
2021/06/14 08:32:23;;;;;;;4.90;3.67;;;29.80;63.40;;;;;;5094130;28;20028;-70
2021/06/14 08:34:49;;;;;;;7.15;3.83;;;29.80;63.00;;;;;;5093184;28;20024;-70
2021/06/14 08:37:14;;;;;;;7.43;4.13;;;29.60;62.80;;;;;;5094653;28;20028;-70
2021/06/14 08:39:40;;;;;;;9.25;3.88;;;29.50;62.30;;;;;;5095052;28;20058;-70
2021/06/14 08:42:06;;;;;;;7.15;4.20;;;29.80;61.30;;;;;;5094600;28;20354;-70
2021/06/14 08:44:32;;;;;;;9.32;4.05;;;29.90;59.50;;;;;;5093434;28;20032;-70
2021/06/14 08:46:58;;;;;;;8.40;4.32;;;29.90;59.80;;;;;;5076417;28;20069;-70
2021/06/14 08:49:26;;;;;;;7.00;3.75;;;29.80;61.00;;;;;;5094244;28;20024;-70
2021/06/14 08:51:52;;;;;;;9.50;4.03;;;29.80;61.70;;;;;;5094669;28;20055;-70
2021/06/14 08:54:18;;;;;;;7.45;3.65;;;30.20;61.60;;;;;;5093183;28;20051;-70
2021/06/14 08:56:44;;;;;;;7.32;4.10;;;30.90;60.40;;;;;;5094169;28;20453;-71
2021/06/14 08:59:11;;;;;;;6.45;3.65;;;31.10;58.10;;;;;;5094607;28;20023;-70
2021/06/14 09:01:36;;;;;;;8.55;4.00;;;30.90;58.90;;;;;;5092933;28;20023;-71
2021/06/14 09:04:02;;;;;;;9.50;4.35;;;30.70;58.30;;;;;;5093826;28;20020;-74
2021/06/14 09:06:27;;;;;;;11.93;3.83;;;30.40;58.20;;;;;;5092829;28;20381;-74
2021/06/14 09:08:59;;;;;;;10.63;4.13;;;30.70;59.50;;;;;;5092508;28;20035;-74
2021/06/14 09:11:26;;;;;;;8.63;3.90;;;30.70;58.30;;;;;;5093822;28;20020;-74
2021/06/14 09:13:51;;;;;;;15.00;3.92;;;30.10;58.10;;;;;;5092878;28;20047;-73
2021/06/14 09:16:18;;;;;;;8.20;4.03;;;30.00;58.60;;;;;;5092403;28;20370;-73
2021/06/14 09:18:46;;;;;;;7.50;3.38;;;30.40;56.90;;;;;;5092185;28;20028;-71
2021/06/14 09:21:14;;;;;;;7.93;4.00;;;30.50;58.10;;;;;;5092461;28;20073;-70
2021/06/14 09:23:49;;;;;;;7.15;3.72;;;31.00;56.00;;;;;;5091723;28;20051;-70
2021/06/14 09:26:32;;;;;;;8.40;4.05;;;30.90;55.80;;;;;;5076310;28;20024;-71
2021/06/14 09:29:05;;;;;;;11.00;4.43;;;30.70;57.00;;;;;;5093251;28;20430;-73
2021/06/14 09:31:53;;;;;;;5.45;3.90;;;30.80;55.10;;;;;;5093959;28;20103;-71
2021/06/14 09:34:32;;;;;;;8.55;4.45;;;31.10;55.30;;;;;;5093258;28;20473;-71
2021/06/14 09:37:01;;;;;;;6.25;4.07;;;30.80;56.20;;;;;;5093936;28;20078;-73
2021/06/14 09:39:34;;;;;;;7.53;3.42;;;31.10;55.40;;;;;;5092009;28;20028;-72
2021/06/14 09:42:00;;;;;;;7.05;3.75;;;31.40;54.60;;;;;;5093489;28;20453;-72
2021/06/14 09:44:30;;;;;;;5.80;3.80;;;31.10;52.90;;;;;;5091956;28;20073;-73
2021/06/14 09:47:05;;;;;;;5.85;3.38;;;31.00;51.80;;;;;;5093764;28;20480;-72
2021/06/14 09:49:33;;;;;;;8.85;3.90;;;31.30;53.90;;;;;;5093504;28;20058;-70
2021/06/14 09:51:59;;;;;;;6.15;3.70;;;30.90;54.10;;;;;;5092719;28;20074;-71
2021/06/14 09:54:30;;;;;;;8.27;3.80;;;31.60;53.00;;;;;;5092746;28;20028;-70
2021/06/14 09:56:57;;;;;;;7.10;4.05;;;31.40;52.80;;;;;;5093617;28;20399;-70
2021/06/14 09:59:26;;;;;;;5.30;3.55;;;32.30;51.60;;;;;;5092115;28;20480;-71
2021/06/14 10:02:04;;;;;;;7.53;3.33;;;33.10;50.20;;;;;;5091891;28;20028;-72
2021/06/14 10:04:31;;;;;;;8.30;3.30;;;32.70;50.00;;;;;;5093716;28;20112;-71
2021/06/14 10:06:59;;;;;;;7.28;3.67;;;32.40;51.00;;;;;;5091770;28;20016;-70
2021/06/14 10:09:25;;;;;;;7.45;3.20;;;33.50;47.90;;;;;;5091885;28;20076;-70
2021/06/14 10:11:50;;;;;;;7.25;3.40;;;34.10;47.50;;;;;;5075369;28;20494;-71
2021/06/14 10:14:20;;;;;;;9.27;3.20;;;33.10;45.80;;;;;;5092644;28;20027;-72
2021/06/14 10:16:47;;;;;;;4.75;2.90;;;32.20;45.10;;;;;;5075007;28;20035;-72
2021/06/14 10:19:15;;;;;;;4.45;3.05;;;32.10;46.40;;;;;;5091311;28;20052;-71
2021/06/14 10:21:43;;;;;;;7.43;3.50;;;31.90;46.00;;;;;;5091081;28;20038;-69
2021/06/14 10:24:14;;;;;;;6.25;3.40;;;32.10;47.00;;;;;;5074727;28;20028;-69
2021/06/14 10:26:43;;;;;;;6.15;3.53;;;32.10;47.60;;;;;;5074209;28;20055;-68
2021/06/14 10:29:12;;;;;;;8.60;3.70;;;31.60;46.20;;;;;;5076708;28;20528;-68
2021/06/14 10:31:39;;;;;;;5.30;3.10;;;32.00;47.00;;;;;;5076471;28;20115;-69
2021/06/14 10:34:05;;;;;;;5.30;3.15;;;32.10;47.40;;;;;;5058899;28;20029;-69
2021/06/14 10:36:31;;;;;;;6.13;3.10;;;32.70;47.20;;;;;;5076537;28;20381;-71
2021/06/14 10:38:57;;;;;;;5.32;3.30;;;32.20;45.50;;;;;;5076701;28;20032;-68
2021/06/14 10:41:24;;;;;;;8.60;3.67;;;32.40;47.50;;;;;;5074537;28;20031;-68
2021/06/14 10:43:51;;;;;;;6.10;3.05;;;31.40;47.10;;;;;;5087295;28;20131;-71
2021/06/14 10:46:19;;;;;;;6.30;3.35;;;30.70;48.90;;;;;;5095390;28;20486;-67
2021/06/14 10:48:46;;;;;;;6.45;3.63;;;30.70;49.80;;;;;;5095906;28;20085;-67
2021/06/14 10:51:17;;;;;;;7.95;3.55;;;30.30;49.80;;;;;;5078545;28;20024;-67
2021/06/14 10:53:43;;;;;;;7.30;3.45;;;29.70;49.20;;;;;;5095878;28;20039;-71
2021/06/14 10:56:14;;;;;;;7.75;3.55;;;29.70;50.90;;;;;;5095217;28;20036;-72
2021/06/14 10:58:43;;;;;;;10.88;3.88;;;29.30;50.50;;;;;;5096951;28;20028;-72
2021/06/14 11:01:15;;;;;;;8.68;3.25;;;29.30;51.20;;;;;;5095243;28;20475;-72
2021/06/14 11:03:45;;;;;;;6.70;3.45;;;29.30;51.30;;;;;;5095125;28;20458;-71
2021/06/14 11:06:15;;;;;;;5.13;3.58;;;29.10;51.40;;;;;;5094700;28;20071;-72
2021/06/14 11:08:41;;;;;;;6.72;3.47;;;28.70;50.50;;;;;;5094163;28;20024;-71
2021/06/14 11:11:07;;;;;;;7.97;3.63;;;28.50;51.80;;;;;;5093405;28;20074;-71
2021/06/14 11:13:34;;;;;;;8.18;3.40;;;28.60;51.90;;;;;;5095509;28;20039;-71
2021/06/14 11:16:02;;;;;;;4.72;3.00;;;29.20;51.30;;;;;;5093924;28;20485;-72
2021/06/14 11:18:31;;;;;;;5.88;3.33;;;29.20;51.10;;;;;;5094656;28;20038;-71
2021/06/14 11:21:19;;;;;;;5.18;3.20;;;29.20;50.90;;;;;;5095895;28;20020;-72
2021/06/14 11:23:47;;;;;;;5.35;3.22;;;29.40;50.90;;;;;;5095924;28;20027;-71
2021/06/14 11:26:24;;;;;;;5.40;2.83;;;29.10;49.20;;;;;;5096429;28;20449;-71
2021/06/14 11:28:50;;;;;;;7.20;3.42;;;29.00;49.90;;;;;;5095726;28;20020;-71
2021/06/14 11:34:02;;;;;;;7.68;3.63;;;28.80;51.80;;;;;;5127935;27;20132;-71
2021/06/14 11:36:31;;;;;;;10.32;3.67;;;28.80;51.50;;;;;;5111726;28;20020;-72
2021/06/14 11:38:59;;;;;;;7.88;3.67;;;28.90;51.40;;;;;;5111692;28;20365;-70
2021/06/14 11:41:28;;;;;;;10.65;3.83;;;28.60;52.50;;;;;;5111286;28;20018;-70
2021/06/14 11:44:18;;;;;;;8.45;3.80;;;28.90;50.30;;;;;;5111587;28;20023;-72
2021/06/14 11:46:44;;;;;;;9.73;3.63;;;29.00;51.60;;;;;;5110923;28;20035;-71
2021/06/14 11:49:11;;;;;;;5.07;3.38;;;29.10;52.80;;;;;;5110234;28;20453;-72
2021/06/14 11:51:37;;;;;;;6.63;3.42;;;29.60;52.00;;;;;;5110992;28;20069;-72
2021/06/14 11:54:04;;;;;;;6.57;3.47;;;29.40;51.10;;;;;;5110788;28;20030;-72
2021/06/14 11:56:35;;;;;;;4.78;3.63;;;29.90;52.20;;;;;;5092653;28;20449;-72
2021/06/14 11:59:02;;;;;;;4.82;3.10;;;30.20;51.00;;;;;;5109496;28;20057;-71
2021/06/14 12:01:31;;;;;;;8.52;3.80;;;29.80;48.70;;;;;;5110086;28;20360;-71
2021/06/14 12:03:58;;;;;;;5.93;3.17;;;29.40;50.30;;;;;;5110631;28;20024;-72
2021/06/14 12:06:26;;;;;;;6.45;2.80;;;29.20;50.20;;;;;;5111291;28;20137;-71
2021/06/14 12:08:52;;;;;;;6.88;3.40;;;29.40;50.80;;;;;;5110125;28;20020;-72
2021/06/14 12:11:24;;;;;;;7.88;2.92;;;29.20;49.70;;;;;;5109680;28;20027;-72
2021/06/14 12:13:50;;;;;;;5.77;3.30;;;29.10;49.20;;;;;;5110837;28;20038;-71
2021/06/14 12:16:15;;;;;;;7.10;2.80;;;29.20;49.50;;;;;;5109242;28;20024;-71
2021/06/14 12:18:41;;;;;;;6.63;3.17;;;29.40;51.40;;;;;;5092449;28;20441;-71
2021/06/14 12:21:09;;;;;;;7.20;3.15;;;29.50;50.50;;;;;;5110262;28;20016;-71
2021/06/14 12:23:37;;;;;;;6.55;2.65;;;29.80;49.90;;;;;;5110828;28;20373;-71
2021/06/14 12:26:07;;;;;;;4.85;2.70;;;29.80;50.40;;;;;;5110536;28;20418;-71
2021/06/14 12:28:34;;;;;;;7.38;2.88;;;30.00;49.30;;;;;;5110479;28;20028;-72
2021/06/14 12:31:04;;;;;;;7.43;3.05;;;29.90;50.30;;;;;;5110254;28;20047;-71
2021/06/14 12:33:33;;;;;;;5.35;3.10;;;29.50;49.90;;;;;;5110065;28;20123;-71
2021/06/14 12:35:59;;;;;;;6.20;3.20;;;29.30;50.50;;;;;;5108710;28;20035;-71
2021/06/14 12:38:25;;;;;;;5.47;2.63;;;29.40;49.00;;;;;;5110090;28;20012;-71
2021/06/14 12:40:51;;;;;;;5.70;2.30;;;29.70;51.40;;;;;;5091892;28;20028;-71
2021/06/14 12:43:17;;;;;;;4.88;2.53;;;29.70;49.60;;;;;;5108709;28;20501;-71
2021/06/14 12:45:44;;;;;;;5.93;2.53;;;29.90;50.10;;;;;;5095146;28;20020;-72
2021/06/14 12:48:13;;;;;;;3.85;2.50;;;29.30;48.70;;;;;;5077563;28;20439;-71